createdAt,value
2022-08-17T00:02:24.140Z,24.37
2022-08-17T00:07:28.442Z,24.35
2022-08-17T00:12:43.032Z,24.34
2022-08-17T00:17:46.662Z,24.31
2022-08-17T00:22:48.122Z,24.25
2022-08-17T00:27:49.516Z,24.15
2022-08-17T00:33:12.645Z,24.07
2022-08-17T00:38:12.568Z,24.02
2022-08-17T00:43:18.988Z,24.00
2022-08-17T00:48:29.066Z,23.93
2022-08-17T00:53:32.790Z,23.91
2022-08-17T00:58:36.082Z,23.89
2022-08-17T01:03:39.090Z,23.86
2022-08-17T01:08:40.756Z,23.82
2022-08-17T01:13:43.204Z,23.79
2022-08-17T01:18:45.551Z,23.77
2022-08-17T01:23:46.890Z,23.72
2022-08-17T01:28:54.857Z,23.66
2022-08-17T01:33:59.905Z,23.59
2022-08-17T01:39:04.650Z,23.50
2022-08-17T01:44:07.334Z,23.43
2022-08-17T01:49:10.395Z,23.35
2022-08-17T01:54:13.700Z,23.27
2022-08-17T01:59:16.087Z,23.18
2022-08-17T02:04:17.497Z,23.07
2022-08-17T02:09:23.323Z,22.96
2022-08-17T02:14:27.382Z,22.88
2022-08-17T02:19:31.126Z,22.80
2022-08-17T02:25:00.188Z,22.73
2022-08-17T02:29:55.079Z,22.67
2022-08-17T02:34:57.211Z,22.63
2022-08-17T02:39:59.380Z,22.59
2022-08-17T02:45:01.697Z,22.55
2022-08-17T02:50:03.828Z,22.51
2022-08-17T02:55:06.663Z,22.46
2022-08-17T03:00:11.256Z,22.40
2022-08-17T03:05:14.507Z,22.35
2022-08-17T03:10:16.420Z,22.31
2022-08-17T03:15:20.487Z,22.29
2022-08-17T03:20:22.505Z,22.27
2022-08-17T03:25:25.685Z,22.25
2022-08-17T03:30:27.859Z,22.21
2022-08-17T03:35:30.844Z,22.17
2022-08-17T03:40:39.860Z,22.11
2022-08-17T03:46:27.915Z,22.04
2022-08-17T03:51:52.674Z,21.98
2022-08-17T03:57:14.330Z,21.91
2022-08-17T04:02:18.083Z,21.86
2022-08-17T04:07:24.178Z,21.81
2022-08-17T04:12:26.703Z,21.75
2022-08-17T04:17:28.940Z,21.72
2022-08-17T04:22:34.250Z,21.71
2022-08-17T04:27:36.303Z,21.69
2022-08-17T04:33:00.819Z,21.67
2022-08-17T04:38:09.758Z,21.67
2022-08-17T04:43:16.366Z,21.70
2022-08-17T04:48:20.734Z,21.72
2022-08-17T04:53:22.085Z,21.73
2022-08-17T04:58:23.453Z,21.76
2022-08-17T05:03:24.842Z,21.80
2022-08-17T05:08:26.413Z,21.84
2022-08-17T05:13:29.694Z,21.88
2022-08-17T05:18:31.442Z,21.95
2022-08-17T05:23:37.830Z,22.05
2022-08-17T05:28:44.959Z,22.16
2022-08-17T05:33:47.531Z,22.30
2022-08-17T05:38:48.905Z,22.46
2022-08-17T05:43:54.382Z,22.59
2022-08-17T05:48:59.198Z,22.76
2022-08-17T05:54:06.924Z,22.92
2022-08-17T05:59:14.115Z,23.10
2022-08-17T06:04:15.421Z,23.26
2022-08-17T06:09:33.992Z,23.41
2022-08-17T06:14:54.159Z,23.62
2022-08-17T06:20:02.781Z,23.82
2022-08-17T06:25:26.009Z,24.05
2022-08-17T06:30:29.014Z,24.30
2022-08-17T06:36:10.621Z,24.60
2022-08-17T06:41:27.141Z,24.87
2022-08-17T06:46:39.937Z,25.10
2022-08-17T06:51:57.331Z,25.30
2022-08-17T06:57:14.745Z,25.48
2022-08-17T07:02:19.594Z,25.67
2022-08-17T07:07:50.386Z,25.92
2022-08-17T07:12:54.017Z,26.12
2022-08-17T07:17:56.083Z,26.29
2022-08-17T07:23:00.407Z,26.42
2022-08-17T07:28:07.020Z,26.58
2022-08-17T07:33:12.561Z,26.74
2022-08-17T07:38:25.240Z,26.90
2022-08-17T07:43:39.600Z,27.04
2022-08-17T07:48:42.247Z,27.20
2022-08-17T07:53:45.137Z,27.36
2022-08-17T07:58:48.866Z,27.49
2022-08-17T08:03:52.531Z,27.60
2022-08-17T08:08:55.562Z,27.75
2022-08-17T08:14:16.474Z,27.91
2022-08-17T08:19:20.984Z,28.03
2022-08-17T08:24:22.534Z,28.17
2022-08-17T08:29:29.233Z,28.30
2022-08-17T08:34:58.842Z,28.42
2022-08-17T08:40:07.402Z,28.60
2022-08-17T08:45:16.151Z,28.77
2022-08-17T08:50:37.873Z,28.93
2022-08-17T08:55:49.774Z,29.09
2022-08-17T09:00:54.251Z,29.26
2022-08-17T09:06:38.533Z,29.44
2022-08-17T09:12:01.188Z,29.57
2022-08-17T09:17:12.688Z,29.70
2022-08-17T09:22:24.548Z,29.75
2022-08-17T09:27:40.869Z,29.83
2022-08-17T09:32:43.945Z,30.00
2022-08-17T09:38:04.191Z,30.20
2022-08-17T09:43:24.835Z,30.35
2022-08-17T09:48:31.645Z,30.52
2022-08-17T09:53:35.450Z,30.68
2022-08-17T09:58:50.424Z,30.65
2022-08-17T10:04:03.732Z,30.82
2022-08-17T10:09:14.448Z,31.09
2022-08-17T10:14:36.248Z,31.37
2022-08-17T10:19:40.362Z,31.46
2022-08-17T10:25:23.749Z,31.45
2022-08-17T10:30:31.389Z,31.34
2022-08-17T10:35:51.852Z,31.25
2022-08-17T10:41:05.444Z,31.32
2022-08-17T10:46:31.168Z,31.47
2022-08-17T10:51:37.762Z,31.57
2022-08-17T10:56:41.134Z,31.52
2022-08-17T11:02:00.835Z,31.57
2022-08-17T11:07:21.883Z,31.71
2022-08-17T11:12:37.501Z,31.85
2022-08-17T11:17:48.725Z,31.99
2022-08-17T11:22:50.406Z,32.17
2022-08-17T11:28:05.058Z,32.23
2022-08-17T11:33:25.248Z,32.41
2022-08-17T11:38:41.320Z,32.62
2022-08-17T11:43:45.739Z,32.80
2022-08-17T11:49:14.577Z,32.82
2022-08-17T11:54:34.064Z,32.59
2022-08-17T11:59:36.430Z,32.41
2022-08-17T12:04:37.874Z,32.41
2022-08-17T12:09:41.718Z,32.47
2022-08-17T12:15:09.526Z,32.72
2022-08-17T12:20:23.002Z,32.68
2022-08-17T12:25:32.927Z,32.36
2022-08-17T12:30:35.468Z,32.15
2022-08-17T12:35:38.802Z,32.11
2022-08-17T12:40:40.147Z,32.14
2022-08-17T12:45:41.798Z,32.28
2022-08-17T12:50:45.700Z,32.61
2022-08-17T12:55:47.770Z,32.86
2022-08-17T13:00:51.163Z,33.00
2022-08-17T13:05:52.483Z,33.14
2022-08-17T13:11:01.929Z,33.28
2022-08-17T13:16:05.592Z,33.53
2022-08-17T13:21:11.959Z,33.68
2022-08-17T13:26:15.783Z,33.87
2022-08-17T13:31:21.393Z,33.90
2022-08-17T13:36:29.896Z,33.87
2022-08-17T13:41:38.092Z,33.84
2022-08-17T13:46:39.439Z,33.70
2022-08-17T13:51:45.415Z,33.55
2022-08-17T13:56:58.474Z,33.61
2022-08-17T14:01:59.998Z,33.79
2022-08-17T14:07:03.878Z,33.96
2022-08-17T14:12:06.683Z,34.09
2022-08-17T14:17:08.131Z,34.25
2022-08-17T14:22:13.014Z,34.35
2022-08-17T14:27:17.890Z,34.51
2022-08-17T14:32:21.038Z,34.63
2022-08-17T14:37:26.223Z,34.75
2022-08-17T14:42:29.720Z,34.73
2022-08-17T14:47:31.144Z,34.66
2022-08-17T14:52:32.652Z,34.71
2022-08-17T14:57:34.641Z,34.72
2022-08-17T15:02:44.270Z,34.83
2022-08-17T15:07:45.812Z,34.94
2022-08-17T15:12:47.510Z,34.98
2022-08-17T15:17:48.973Z,34.90
2022-08-17T15:22:51.051Z,34.70
2022-08-17T15:27:52.782Z,34.54
2022-08-17T15:32:55.503Z,34.40
2022-08-17T15:37:58.245Z,34.25
2022-08-17T15:43:03.701Z,34.19
2022-08-17T15:48:05.078Z,34.15
2022-08-17T15:53:06.799Z,34.14
2022-08-17T15:58:08.176Z,34.13
2022-08-17T16:03:20.308Z,34.12
2022-08-17T16:08:30.886Z,34.12
2022-08-17T16:13:32.633Z,34.13
2022-08-17T16:18:36.312Z,34.09
2022-08-17T16:23:37.622Z,33.98
2022-08-17T16:28:38.948Z,33.88
2022-08-17T16:33:41.129Z,33.83
2022-08-17T16:38:42.534Z,33.70
2022-08-17T16:43:45.555Z,33.47
2022-08-17T16:48:46.892Z,33.24
2022-08-17T16:53:48.442Z,33.04
2022-08-17T16:59:09.223Z,32.87
2022-08-17T17:04:26.857Z,32.74
2022-08-17T17:09:32.986Z,32.58
2022-08-17T17:14:42.999Z,32.39
2022-08-17T17:20:03.249Z,32.19
2022-08-17T17:25:07.702Z,31.97
2022-08-17T17:30:12.084Z,31.76
2022-08-17T17:35:16.321Z,31.58
2022-08-17T17:40:21.539Z,31.41
2022-08-17T17:45:31.798Z,31.22
2022-08-17T17:50:36.701Z,31.04
2022-08-17T17:55:41.125Z,30.88
2022-08-17T18:01:01.257Z,30.72
2022-08-17T18:06:12.984Z,30.56
2022-08-17T18:11:34.830Z,30.40
2022-08-17T18:16:36.708Z,30.24
2022-08-17T18:21:39.858Z,30.11
2022-08-17T18:26:52.731Z,29.99
2022-08-17T18:32:14.985Z,29.86
2022-08-17T18:37:52.451Z,29.71
2022-08-17T18:43:08.669Z,29.58
2022-08-17T18:48:19.290Z,29.45
2022-08-17T18:53:26.645Z,29.34
2022-08-17T18:58:35.927Z,29.22
2022-08-17T19:03:41.940Z,29.13
2022-08-17T19:08:44.273Z,29.02
2022-08-17T19:13:54.592Z,28.85
2022-08-17T19:18:56.140Z,28.66
2022-08-17T19:23:58.615Z,28.47
2022-08-17T19:29:02.768Z,28.31
2022-08-17T19:34:04.118Z,28.14
2022-08-17T19:39:16.226Z,28.01
2022-08-17T19:44:26.979Z,27.90
2022-08-17T19:49:46.806Z,27.80
2022-08-17T19:54:58.821Z,27.71
2022-08-17T20:00:16.818Z,27.63
2022-08-17T20:05:23.781Z,27.53
2022-08-17T20:10:38.628Z,27.44
2022-08-17T20:15:41.533Z,27.33
2022-08-17T20:20:59.498Z,27.25
2022-08-17T20:26:20.387Z,27.14
2022-08-17T20:31:41.977Z,26.98
2022-08-17T20:36:57.385Z,26.74
2022-08-17T20:42:26.963Z,26.52
2022-08-17T20:47:30.956Z,26.32
2022-08-17T20:52:35.552Z,26.21
2022-08-17T20:57:37.067Z,26.13
2022-08-17T21:02:38.519Z,26.05
2022-08-17T21:07:53.004Z,25.97
2022-08-17T21:12:57.590Z,25.89
2022-08-17T21:18:31.697Z,25.86
2022-08-17T21:23:55.978Z,25.87
2022-08-17T21:29:31.358Z,25.92
2022-08-17T21:34:44.136Z,25.97
2022-08-17T21:39:50.761Z,25.99
2022-08-17T21:44:55.507Z,26.00
2022-08-17T21:50:13.311Z,26.01
2022-08-17T21:55:24.694Z,26.00
2022-08-17T22:00:30.205Z,25.96
2022-08-17T22:05:36.423Z,25.93
2022-08-17T22:10:40.957Z,25.87
2022-08-17T22:15:43.621Z,25.78
2022-08-17T22:20:52.063Z,25.69
2022-08-17T22:26:00.067Z,25.61
2022-08-17T22:31:04.145Z,25.54
2022-08-17T22:36:11.688Z,25.48
2022-08-17T22:41:25.418Z,25.43
2022-08-17T22:46:26.761Z,25.41
2022-08-17T22:51:29.953Z,25.38
2022-08-17T22:56:49.755Z,25.39
2022-08-17T23:02:10.223Z,25.37
2022-08-17T23:07:11.704Z,25.28
2022-08-17T23:12:15.679Z,25.21
2022-08-17T23:17:17.233Z,25.13
2022-08-17T23:22:18.723Z,25.07
2022-08-17T23:27:20.568Z,25.04
2022-08-17T23:32:22.283Z,25.01
2022-08-17T23:37:23.610Z,24.99
2022-08-17T23:42:24.993Z,24.99
2022-08-17T23:47:26.341Z,25.01
2022-08-17T23:52:27.892Z,25.01
2022-08-17T23:57:33.131Z,25.04
